createdAt,value
2018-01-14T00:00:55.702Z,10.93
2018-01-14T00:03:30.118Z,11.07
2018-01-14T00:06:04.634Z,12.52
2018-01-14T00:08:39.209Z,12.93
2018-01-14T00:11:13.840Z,8.05
2018-01-14T00:13:48.315Z,12.50
2018-01-14T00:16:23.444Z,9.40
2018-01-14T00:18:58.679Z,12.02
2018-01-14T00:21:33.226Z,11.65
2018-01-14T00:24:08.423Z,13.07
2018-01-14T00:26:42.902Z,10.25
2018-01-14T00:29:17.326Z,12.88
2018-01-14T00:31:51.980Z,12.02
2018-01-14T00:34:27.167Z,11.02
2018-01-14T00:37:01.654Z,11.20
2018-01-14T00:39:36.204Z,11.82
2018-01-14T00:42:11.381Z,13.40
2018-01-14T00:44:45.779Z,10.40
2018-01-14T00:47:20.278Z,12.43
2018-01-14T00:49:54.766Z,13.45
2018-01-14T00:52:29.239Z,11.70
2018-01-14T00:55:03.803Z,12.90
2018-01-14T00:57:38.262Z,13.43
2018-01-14T01:00:12.926Z,12.25
2018-01-14T01:02:47.470Z,14.40
2018-01-14T01:05:21.988Z,13.52
2018-01-14T01:07:56.491Z,16.17
2018-01-14T01:10:31.035Z,13.77
2018-01-14T01:13:05.592Z,13.57
2018-01-14T01:15:40.110Z,12.50
2018-01-14T01:18:14.476Z,10.25
2018-01-14T01:20:48.918Z,9.32
2018-01-14T01:23:24.212Z,15.13
2018-01-14T01:25:58.600Z,13.05
2018-01-14T01:28:33.869Z,11.88
2018-01-14T01:31:08.471Z,11.80
2018-01-14T01:33:43.029Z,12.55
2018-01-14T01:36:17.615Z,13.48
2018-01-14T01:38:52.898Z,13.75
2018-01-14T01:41:27.255Z,13.15
2018-01-14T01:44:01.779Z,13.40
2018-01-14T01:46:36.348Z,12.05
2018-01-14T01:49:10.810Z,12.63
2018-01-14T01:51:45.378Z,13.85
2018-01-14T01:54:19.962Z,13.45
2018-01-14T01:56:54.489Z,11.93
2018-01-14T01:59:29.625Z,10.70
2018-01-14T02:02:04.243Z,11.50
2018-01-14T02:04:38.835Z,10.95
2018-01-14T02:07:13.434Z,10.88
2018-01-14T02:09:48.001Z,11.07
2018-01-14T02:12:22.614Z,13.32
2018-01-14T02:14:57.442Z,11.95
2018-01-14T02:17:31.816Z,13.18
2018-01-14T02:20:06.354Z,13.43
2018-01-14T02:22:40.944Z,13.68
2018-01-14T02:25:15.448Z,13.07
2018-01-14T02:27:49.960Z,11.80
2018-01-14T02:30:24.465Z,12.95
2018-01-14T02:32:58.848Z,14.60
2018-01-14T02:35:33.408Z,11.90
2018-01-14T02:38:07.918Z,14.77
2018-01-14T02:40:42.388Z,12.85
2018-01-14T02:43:16.946Z,14.50
2018-01-14T02:45:51.435Z,13.65
2018-01-14T02:48:25.761Z,12.93
2018-01-14T02:51:00.116Z,12.70
2018-01-14T02:53:34.743Z,10.70
2018-01-14T02:56:09.175Z,13.68
2018-01-14T02:58:43.624Z,14.48
2018-01-14T03:01:18.193Z,13.95
2018-01-14T03:03:52.641Z,13.15
2018-01-14T03:06:27.911Z,13.85
2018-01-14T03:09:02.420Z,12.57
2018-01-14T03:11:36.921Z,13.10
2018-01-14T03:14:11.444Z,12.30
2018-01-14T03:16:45.805Z,10.65
2018-01-14T03:19:21.110Z,10.45
2018-01-14T03:21:55.474Z,12.20
2018-01-14T03:24:29.851Z,12.52
2018-01-14T03:27:04.333Z,11.75
2018-01-14T03:29:38.944Z,11.63
2018-01-14T03:32:13.487Z,13.95
2018-01-14T03:34:47.915Z,11.30
2018-01-14T03:37:22.454Z,12.05
2018-01-14T03:42:37.779Z,12.30
2018-01-14T03:45:12.904Z,11.32
2018-01-14T03:47:47.464Z,11.15
2018-01-14T03:50:24.738Z,11.95
2018-01-14T03:52:59.239Z,10.60
2018-01-14T03:55:33.763Z,11.95
2018-01-14T03:58:08.198Z,10.60
2018-01-14T04:00:42.722Z,11.35
2018-01-14T04:03:17.245Z,11.68
2018-01-14T04:05:51.767Z,10.25
2018-01-14T04:08:26.287Z,9.63
2018-01-14T04:11:00.812Z,10.48
2018-01-14T04:13:35.175Z,8.73
2018-01-14T04:16:09.718Z,10.85
2018-01-14T04:18:44.160Z,11.02
2018-01-14T04:21:18.555Z,8.60
2018-01-14T04:23:53.105Z,9.13
2018-01-14T04:26:27.786Z,10.20
2018-01-14T04:29:02.159Z,9.40
2018-01-14T04:31:36.675Z,9.15
2018-01-14T04:34:11.206Z,8.77
2018-01-14T04:36:45.673Z,6.50
2018-01-14T04:39:20.064Z,10.38
2018-01-14T04:41:54.637Z,9.52
2018-01-14T04:44:29.156Z,8.43
2018-01-14T04:47:04.726Z,10.15
2018-01-14T04:49:39.129Z,8.65
2018-01-14T04:52:13.641Z,10.60
2018-01-14T04:54:48.198Z,9.90
2018-01-14T04:57:22.697Z,8.65
2018-01-14T04:59:57.219Z,9.55
2018-01-14T05:02:32.464Z,9.40
2018-01-14T05:05:07.733Z,10.43
2018-01-14T05:07:42.204Z,11.65
2018-01-14T05:10:16.708Z,8.20
2018-01-14T05:12:51.950Z,8.43
2018-01-14T05:15:26.334Z,10.45
2018-01-14T05:18:00.688Z,9.77
2018-01-14T05:20:35.050Z,10.60
2018-01-14T05:23:09.445Z,9.75
2018-01-14T05:25:43.999Z,11.10
2018-01-14T05:28:18.770Z,10.55
2018-01-14T05:30:54.037Z,10.50
2018-01-14T05:33:28.505Z,9.60
2018-01-14T05:36:03.018Z,7.55
2018-01-14T05:38:37.524Z,10.70
2018-01-14T05:41:11.929Z,9.00
2018-01-14T05:43:46.434Z,11.00
2018-01-14T05:46:21.690Z,10.75
2018-01-14T05:48:56.068Z,9.00
2018-01-14T05:51:30.485Z,10.73
2018-01-14T05:54:05.004Z,11.57
2018-01-14T05:56:39.494Z,8.98
2018-01-14T05:59:14.003Z,11.32
2018-01-14T06:01:48.400Z,11.20
2018-01-14T06:04:22.892Z,10.48
2018-01-14T06:06:57.408Z,10.27
2018-01-14T06:09:31.888Z,10.05
2018-01-14T06:12:06.302Z,11.18
2018-01-14T06:14:40.807Z,11.52
2018-01-14T06:17:15.208Z,9.38
2018-01-14T06:19:49.673Z,12.85
2018-01-14T06:22:24.267Z,11.73
2018-01-14T06:24:58.654Z,10.80
2018-01-14T06:27:33.245Z,10.32
2018-01-14T06:30:07.793Z,8.00
2018-01-14T06:32:42.324Z,11.05
2018-01-14T06:35:16.848Z,9.93
2018-01-14T06:37:51.309Z,12.40
2018-01-14T06:40:25.694Z,11.60
2018-01-14T06:43:00.851Z,11.30
2018-01-14T06:45:35.362Z,10.30
2018-01-14T06:48:09.717Z,9.75
2018-01-14T06:50:44.123Z,9.18
2018-01-14T06:53:18.656Z,10.50
2018-01-14T06:55:53.190Z,12.25
2018-01-14T06:58:27.794Z,10.65
2018-01-14T07:01:02.309Z,10.98
2018-01-14T07:03:36.680Z,12.37
2018-01-14T07:06:11.197Z,11.98
2018-01-14T07:08:45.889Z,12.13
2018-01-14T07:11:20.390Z,11.02
2018-01-14T07:13:54.959Z,12.32
2018-01-14T07:16:29.327Z,12.00
2018-01-14T07:19:04.200Z,11.15
2018-01-14T07:21:38.604Z,10.95
2018-01-14T07:24:13.147Z,9.70
2018-01-14T07:26:48.430Z,10.80
2018-01-14T07:29:23.716Z,12.60
2018-01-14T07:31:58.109Z,11.50
2018-01-14T07:34:32.595Z,11.65
2018-01-14T07:37:07.129Z,11.25
2018-01-14T07:39:41.594Z,11.48
2018-01-14T07:42:16.087Z,11.35
2018-01-14T07:44:50.549Z,10.43
2018-01-14T07:47:25.071Z,12.75
2018-01-14T07:49:59.536Z,12.93
2018-01-14T07:52:34.061Z,11.75
2018-01-14T07:55:08.632Z,12.48
2018-01-14T07:57:43.206Z,12.95
2018-01-14T08:00:17.582Z,11.63
2018-01-14T08:02:51.964Z,13.05
2018-01-14T08:05:26.383Z,12.68
2018-01-14T08:08:00.907Z,13.18
2018-01-14T08:10:35.332Z,12.32
2018-01-14T08:13:09.643Z,14.80
2018-01-14T08:15:44.467Z,12.88
2018-01-14T08:18:18.997Z,11.80
2018-01-14T08:20:53.409Z,11.82
2018-01-14T08:23:27.933Z,13.73
2018-01-14T08:26:02.473Z,13.35
2018-01-14T08:28:36.924Z,11.90
2018-01-14T08:31:12.212Z,13.38
2018-01-14T08:33:46.596Z,14.23
2018-01-14T08:36:20.950Z,13.27
2018-01-14T08:38:55.391Z,13.05
2018-01-14T08:41:30.691Z,11.15
2018-01-14T08:44:05.272Z,12.55
2018-01-14T08:46:39.734Z,14.02
2018-01-14T08:49:14.308Z,11.02
2018-01-14T08:51:48.883Z,11.40
2018-01-14T08:54:23.445Z,10.68
2018-01-14T08:56:58.097Z,10.10
2018-01-14T08:59:32.587Z,13.05
2018-01-14T09:02:06.985Z,14.00
2018-01-14T09:04:42.214Z,14.82
2018-01-14T09:07:16.580Z,13.60
2018-01-14T09:09:51.082Z,17.10
2018-01-14T09:12:26.272Z,15.85
2018-01-14T09:15:00.719Z,11.88
2018-01-14T09:17:35.933Z,12.52
2018-01-14T09:20:10.441Z,11.40
2018-01-14T09:22:44.833Z,14.27
2018-01-14T09:25:19.347Z,20.50
2018-01-14T09:27:53.926Z,15.32
2018-01-14T09:30:40.170Z,14.10
2018-01-14T09:33:14.602Z,11.65
2018-01-14T09:35:49.245Z,13.90
2018-01-14T09:38:23.626Z,14.55
2018-01-14T09:40:58.199Z,8.23
2018-01-14T09:43:32.766Z,11.48
2018-01-14T09:46:07.137Z,12.25
2018-01-14T09:48:41.588Z,13.50
2018-01-14T09:51:16.122Z,12.98
2018-01-14T09:53:50.971Z,12.02
2018-01-14T09:56:25.435Z,12.55
2018-01-14T09:58:59.899Z,11.55
2018-01-14T10:01:34.386Z,14.05
2018-01-14T10:04:09.143Z,11.60
2018-01-14T10:06:43.714Z,13.55
2018-01-14T10:09:18.291Z,13.30
2018-01-14T10:11:52.802Z,13.02
2018-01-14T10:14:27.205Z,12.95
2018-01-14T10:17:01.730Z,14.87
2018-01-14T10:19:36.261Z,11.25
2018-01-14T10:22:10.655Z,11.57
2018-01-14T10:24:45.921Z,13.25
2018-01-14T10:27:20.323Z,13.68
2018-01-14T10:29:54.720Z,14.10
2018-01-14T10:32:29.025Z,14.23
2018-01-14T10:35:03.572Z,15.70
2018-01-14T10:37:38.713Z,13.45
2018-01-14T10:40:13.118Z,13.40
2018-01-14T10:42:47.481Z,12.27
2018-01-14T10:45:21.966Z,14.63
2018-01-14T10:47:56.525Z,15.60
2018-01-14T10:50:31.053Z,16.23
2018-01-14T10:53:05.577Z,13.95
2018-01-14T10:55:40.945Z,13.60
2018-01-14T10:58:15.996Z,16.00
2018-01-14T11:00:56.013Z,15.07
2018-01-14T11:03:30.467Z,14.50
2018-01-14T11:06:04.881Z,16.25
2018-01-14T11:08:39.469Z,14.55
2018-01-14T11:11:14.079Z,16.20
2018-01-14T11:13:48.584Z,14.02
2018-01-14T11:16:23.062Z,12.50
2018-01-14T11:18:57.586Z,13.73
2018-01-14T11:21:32.181Z,14.95
2018-01-14T11:24:06.719Z,13.35
2018-01-14T11:26:41.224Z,14.95
2018-01-14T11:29:27.559Z,14.63
2018-01-14T11:32:02.083Z,13.77
2018-01-14T11:34:36.589Z,15.43
2018-01-14T11:37:11.165Z,16.33
2018-01-14T11:39:45.714Z,15.13
2018-01-14T11:42:20.231Z,16.35
2018-01-14T11:44:55.333Z,15.68
2018-01-14T11:47:30.463Z,16.25
2018-01-14T11:50:05.023Z,15.07
2018-01-14T11:52:40.327Z,13.52
2018-01-14T11:55:14.873Z,15.90
2018-01-14T11:57:49.383Z,14.52
2018-01-14T12:00:23.850Z,10.82
2018-01-14T12:02:58.336Z,14.50
2018-01-14T12:05:32.671Z,14.38
2018-01-14T12:08:07.039Z,16.27
2018-01-14T12:10:41.352Z,14.73
2018-01-14T12:13:16.050Z,14.77
2018-01-14T12:15:50.483Z,12.60
2018-01-14T12:18:25.073Z,14.27
2018-01-14T12:20:59.573Z,16.37
2018-01-14T12:23:34.001Z,13.55
2018-01-14T12:26:08.364Z,13.05
2018-01-14T12:28:42.736Z,10.73
2018-01-14T12:31:17.189Z,16.83
2018-01-14T12:37:00.284Z,18.92
2018-01-14T12:39:34.810Z,16.05
2018-01-14T12:42:09.297Z,13.05
2018-01-14T12:44:43.858Z,14.52
2018-01-14T12:47:19.087Z,15.27
2018-01-14T12:49:53.582Z,16.12
2018-01-14T12:52:28.433Z,13.07
2018-01-14T12:55:02.823Z,14.05
2018-01-14T12:57:37.369Z,13.98
2018-01-14T13:00:12.639Z,13.23
2018-01-14T13:02:47.132Z,15.20
2018-01-14T13:05:21.642Z,15.60
2018-01-14T13:07:56.181Z,14.63
2018-01-14T13:10:30.564Z,15.20
2018-01-14T13:13:05.145Z,18.12
2018-01-14T13:15:39.644Z,15.32
2018-01-14T13:18:14.348Z,15.98
2018-01-14T13:20:49.480Z,17.98
2018-01-14T13:23:23.971Z,15.30
2018-01-14T13:25:59.246Z,14.52
2018-01-14T13:28:33.839Z,15.25
2018-01-14T13:31:08.323Z,16.75
2018-01-14T13:33:42.837Z,15.48
2018-01-14T13:36:17.343Z,15.38
2018-01-14T13:38:51.880Z,15.82
2018-01-14T13:41:26.328Z,14.80
2018-01-14T13:44:00.826Z,15.00
2018-01-14T13:46:35.350Z,17.12
2018-01-14T13:49:09.830Z,21.02
2018-01-14T13:51:44.242Z,16.25
2018-01-14T13:54:18.784Z,17.50
2018-01-14T13:56:53.597Z,19.33
2018-01-14T13:59:28.052Z,17.77
2018-01-14T14:02:03.186Z,17.42
2018-01-14T14:04:37.723Z,15.90
2018-01-14T14:07:12.274Z,18.45
2018-01-14T14:09:46.923Z,17.95
2018-01-14T14:12:21.584Z,16.80
2018-01-14T14:14:55.988Z,16.77
2018-01-14T14:17:30.513Z,16.40
2018-01-14T14:20:05.100Z,17.12
2018-01-14T14:22:39.637Z,19.08
2018-01-14T14:25:14.094Z,18.80
2018-01-14T14:27:48.469Z,15.60
2018-01-14T14:30:22.831Z,16.58
2018-01-14T14:32:57.319Z,9.90
2018-01-14T14:35:32.575Z,15.82
2018-01-14T14:38:07.052Z,18.15
2018-01-14T14:40:41.647Z,15.07
2018-01-14T14:43:16.135Z,17.45
2018-01-14T14:45:50.528Z,18.08
2018-01-14T14:48:25.034Z,18.15
2018-01-14T14:50:59.518Z,17.20
2018-01-14T14:53:33.991Z,18.33
2018-01-14T14:56:08.537Z,18.10
2018-01-14T14:58:43.022Z,17.30
2018-01-14T15:01:17.663Z,16.80
2018-01-14T15:03:51.963Z,17.10
2018-01-14T15:06:26.296Z,18.12
2018-01-14T15:09:00.615Z,16.30
2018-01-14T15:11:35.033Z,17.02
2018-01-14T15:14:09.339Z,17.10
2018-01-14T15:16:44.639Z,18.25
2018-01-14T15:19:19.024Z,23.58
2018-01-14T15:21:53.549Z,17.23
2018-01-14T15:24:27.935Z,17.33
2018-01-14T15:27:02.391Z,15.90
2018-01-14T15:29:37.543Z,16.67
2018-01-14T15:32:11.908Z,17.85
2018-01-14T15:34:46.683Z,19.02
2018-01-14T15:37:21.181Z,18.83
2018-01-14T15:39:56.603Z,20.45
2018-01-14T15:42:30.946Z,15.43
2018-01-14T15:45:06.193Z,18.80
2018-01-14T15:47:41.349Z,20.92
2018-01-14T15:50:16.728Z,19.27
2018-01-14T15:52:51.227Z,17.40
2018-01-14T15:55:25.731Z,18.40
2018-01-14T15:58:00.337Z,20.05
2018-01-14T16:00:34.907Z,16.33
2018-01-14T16:03:09.361Z,18.37
2018-01-14T16:05:43.804Z,16.95
2018-01-14T16:08:19.043Z,21.30
2018-01-14T16:10:53.583Z,19.37
2018-01-14T16:13:28.732Z,17.60
2018-01-14T16:16:03.343Z,18.73
2018-01-14T16:18:37.836Z,19.52
2018-01-14T16:21:12.410Z,19.17
2018-01-14T16:23:46.796Z,17.35
2018-01-14T16:26:22.039Z,16.65
2018-01-14T16:28:56.472Z,17.70
2018-01-14T16:31:30.967Z,15.68
2018-01-14T16:34:05.515Z,12.80
2018-01-14T16:36:40.057Z,18.05
2018-01-14T16:39:15.398Z,19.60
2018-01-14T16:41:49.855Z,17.25
2018-01-14T16:44:24.463Z,16.15
2018-01-14T16:46:58.900Z,17.08
2018-01-14T16:49:33.265Z,17.67
2018-01-14T16:52:07.784Z,21.48
2018-01-14T16:54:42.290Z,18.77
2018-01-14T16:57:16.671Z,17.02
2018-01-14T16:59:51.845Z,18.27
2018-01-14T17:02:26.977Z,18.37
2018-01-14T17:05:01.616Z,16.45
2018-01-14T17:07:36.009Z,16.65
2018-01-14T17:10:10.610Z,17.95
2018-01-14T17:12:45.156Z,14.27
2018-01-14T17:15:19.765Z,16.35
2018-01-14T17:17:54.808Z,13.15
2018-01-14T17:20:33.172Z,13.27
2018-01-14T17:23:08.392Z,17.58
2018-01-14T17:25:42.941Z,11.35
2018-01-14T17:28:17.642Z,9.20
2018-01-14T17:30:52.070Z,13.77
2018-01-14T17:33:26.717Z,16.98
2018-01-14T17:36:01.054Z,14.80
2018-01-14T17:38:35.524Z,12.48
2018-01-14T17:41:10.023Z,16.23
2018-01-14T17:43:44.566Z,12.57
2018-01-14T17:46:18.981Z,16.92
2018-01-14T17:48:54.203Z,17.08
2018-01-14T17:51:28.681Z,14.27
2018-01-14T17:54:03.461Z,10.40
2018-01-14T17:56:37.830Z,14.45
2018-01-14T17:59:12.412Z,13.80
2018-01-14T18:01:47.053Z,15.40
2018-01-14T18:04:21.508Z,16.77
2018-01-14T18:06:55.952Z,16.33
2018-01-14T18:09:30.459Z,14.95
2018-01-14T18:12:04.907Z,14.23
2018-01-14T18:14:39.431Z,15.77
2018-01-14T18:17:26.676Z,15.30
2018-01-14T18:20:01.221Z,15.93
2018-01-14T18:22:35.663Z,13.62
2018-01-14T18:25:10.334Z,12.77
2018-01-14T18:27:44.840Z,13.80
2018-01-14T18:30:19.582Z,15.55
2018-01-14T18:32:53.973Z,17.35
2018-01-14T18:35:29.443Z,19.40
2018-01-14T18:38:04.534Z,19.08
2018-01-14T18:40:38.963Z,18.05
2018-01-14T18:43:13.551Z,15.75
2018-01-14T18:45:57.860Z,18.23
2018-01-14T18:48:32.332Z,14.40
2018-01-14T18:51:06.714Z,15.65
2018-01-14T18:53:41.218Z,14.05
2018-01-14T18:56:15.819Z,13.98
2018-01-14T18:58:50.233Z,13.82
2018-01-14T19:01:24.587Z,12.50
2018-01-14T19:03:59.255Z,8.30
2018-01-14T19:06:33.821Z,12.68
2018-01-14T19:09:09.103Z,15.57
2018-01-14T19:11:45.535Z,17.67
2018-01-14T19:14:22.771Z,14.27
2018-01-14T19:16:57.313Z,15.50
2018-01-14T19:19:31.865Z,14.75
2018-01-14T19:22:06.986Z,14.90
2018-01-14T19:24:41.525Z,17.90
2018-01-14T19:27:16.015Z,16.83
2018-01-14T19:29:50.478Z,15.57
2018-01-14T19:32:24.904Z,18.98
2018-01-14T19:34:59.419Z,11.55
2018-01-14T19:37:34.568Z,14.55
2018-01-14T19:40:09.157Z,15.15
2018-01-14T19:42:43.736Z,13.73
2018-01-14T19:45:19.055Z,16.30
2018-01-14T19:47:53.504Z,14.52
2018-01-14T19:50:28.050Z,16.70
2018-01-14T19:53:02.497Z,12.98
2018-01-14T19:55:36.969Z,15.75
2018-01-14T19:58:11.317Z,15.43
2018-01-14T20:00:45.874Z,11.02
2018-01-14T20:03:21.215Z,12.43
2018-01-14T20:05:55.630Z,11.85
2018-01-14T20:08:30.935Z,15.68
2018-01-14T20:11:05.325Z,16.85
2018-01-14T20:16:43.540Z,11.57
2018-01-14T20:19:18.126Z,14.15
2018-01-14T20:21:53.460Z,15.25
2018-01-14T20:24:27.957Z,14.50
2018-01-14T20:27:02.537Z,16.35
2018-01-14T20:29:37.021Z,14.75
2018-01-14T20:35:15.844Z,15.77
2018-01-14T20:37:50.375Z,16.73
2018-01-14T20:40:24.934Z,15.05
2018-01-14T20:42:59.548Z,18.12
2018-01-14T20:45:33.957Z,15.02
2018-01-14T20:48:08.466Z,14.40
2018-01-14T20:50:43.012Z,12.85
2018-01-14T20:53:17.669Z,16.08
2018-01-14T20:55:52.224Z,15.25
2018-01-14T20:58:27.483Z,16.23
2018-01-14T21:01:02.086Z,16.00
2018-01-14T21:03:36.659Z,12.52
2018-01-14T21:06:11.240Z,13.95
2018-01-14T21:08:46.864Z,14.80
2018-01-14T21:11:21.202Z,15.25
2018-01-14T21:13:55.615Z,15.38
2018-01-14T21:16:30.977Z,16.10
2018-01-14T21:19:05.405Z,14.30
2018-01-14T21:21:39.955Z,14.30
2018-01-14T21:24:14.451Z,16.08
2018-01-14T21:26:48.980Z,16.48
2018-01-14T21:29:24.123Z,15.13
2018-01-14T21:31:58.496Z,15.90
2018-01-14T21:34:33.043Z,13.70
2018-01-14T21:37:07.470Z,13.00
2018-01-14T21:39:41.856Z,15.20
2018-01-14T21:42:16.716Z,15.75
2018-01-14T21:44:51.158Z,17.67
2018-01-14T21:47:25.571Z,16.80
2018-01-14T21:50:00.715Z,14.13
2018-01-14T21:52:35.133Z,15.60
2018-01-14T21:55:09.647Z,13.15
2018-01-14T21:57:44.080Z,15.55
2018-01-14T22:00:19.192Z,16.40
2018-01-14T22:02:53.576Z,15.65
2018-01-14T22:05:28.135Z,14.90
2018-01-14T22:08:02.646Z,15.82
2018-01-14T22:10:37.098Z,13.88
2018-01-14T22:13:11.696Z,17.15
2018-01-14T22:15:46.231Z,14.87
2018-01-14T22:18:20.855Z,14.07
2018-01-14T22:20:55.431Z,15.40
2018-01-14T22:23:30.609Z,16.20
2018-01-14T22:26:05.249Z,15.85
2018-01-14T22:28:39.740Z,16.58
2018-01-14T22:31:15.031Z,8.88
2018-01-14T22:33:49.409Z,17.00
2018-01-14T22:36:23.894Z,16.83
2018-01-14T22:38:59.258Z,16.02
2018-01-14T22:41:33.659Z,15.63
2018-01-14T22:44:08.226Z,15.88
2018-01-14T22:46:42.736Z,15.65
2018-01-14T22:49:17.106Z,16.98
2018-01-14T22:51:51.680Z,12.48
2018-01-14T22:54:26.185Z,15.20
2018-01-14T22:57:01.287Z,17.58
2018-01-14T22:59:35.819Z,17.75
2018-01-14T23:02:10.382Z,16.20
2018-01-14T23:04:44.815Z,16.30
2018-01-14T23:07:19.401Z,16.50
2018-01-14T23:09:54.001Z,15.75
2018-01-14T23:12:28.371Z,13.80
2018-01-14T23:15:08.456Z,15.18
2018-01-14T23:17:42.892Z,17.05
2018-01-14T23:20:17.479Z,15.77
2018-01-14T23:25:55.912Z,15.45
2018-01-14T23:28:30.517Z,16.10
2018-01-14T23:31:05.065Z,17.00
2018-01-14T23:33:39.500Z,15.75
2018-01-14T23:36:13.816Z,17.52
2018-01-14T23:38:48.613Z,15.23
2018-01-14T23:41:23.199Z,17.30
2018-01-14T23:43:57.755Z,14.10
2018-01-14T23:46:32.299Z,14.48
2018-01-14T23:49:06.669Z,12.63
2018-01-14T23:51:41.203Z,13.50
2018-01-14T23:54:15.608Z,13.30
2018-01-14T23:56:50.203Z,17.20
